Time;durP1;ratioP1;P1;durP2;ratioP2;P2;SDS_P1;SDS_P2;PMS_P1;PMS_P2;Temp;Humidity;BMP_temperature;BMP_pressure;BME280_temperature;BME280_humidity;BME280_pressure;Samples;Min_cycle;Max_cycle;Signal;HPM_P1;HPM_P2
2023/10/17 00:01:54;;;;;;;10.40;7.10;;;;;;;4.98;83.20;97134.25;109047;1266;22526;-72
2023/10/17 00:04:27;;;;;;;11.40;6.70;;;;;;;4.97;83.08;97134.55;109078;1269;24212;-72
2023/10/17 00:07:02;;;;;;;11.70;7.30;;;;;;;4.98;83.38;97130.89;109061;1273;22526;-72
2023/10/17 00:09:36;;;;;;;9.80;6.20;;;;;;;4.98;83.18;97127.85;109064;1272;25945;-72
2023/10/17 00:12:25;;;;;;;10.60;6.80;;;;;;;4.96;83.33;97125.80;109105;1269;23223;-73
2023/10/17 00:15:00;;;;;;;12.20;6.70;;;;;;;4.94;83.50;97126.09;109106;1266;22511;-72
2023/10/17 00:17:36;;;;;;;12.60;6.80;;;;;;;4.94;83.73;97125.67;109053;1272;22575;-72
2023/10/17 00:20:16;;;;;;;10.80;6.20;;;;;;;4.94;83.73;97125.35;109063;1272;23349;-72
2023/10/17 00:22:51;;;;;;;10.00;6.80;;;;;;;4.93;83.75;97121.97;109074;1272;22533;-72
2023/10/17 00:25:25;;;;;;;10.40;6.70;;;;;;;4.94;83.69;97121.03;109090;1266;23990;-72
2023/10/17 00:27:58;;;;;;;10.50;6.40;;;;;;;4.95;83.79;97118.90;109045;1273;22569;-72
2023/10/17 00:30:30;;;;;;;10.20;6.20;;;;;;;4.98;83.81;97119.44;109080;1272;22535;-72
2023/10/17 00:33:05;;;;;;;10.40;7.00;;;;;;;5.00;83.71;97113.75;109090;1273;22692;-73
2023/10/17 00:35:38;;;;;;;10.50;6.50;;;;;;;5.02;83.63;97115.36;109022;1266;24283;-72
2023/10/17 00:38:10;;;;;;;9.30;6.10;;;;;;;5.03;83.66;97109.08;109029;1270;25884;-72
2023/10/17 00:40:49;;;;;;;10.40;6.40;;;;;;;5.05;83.56;97108.64;109099;1257;22566;-72
2023/10/17 00:43:21;;;;;;;11.90;6.80;;;;;;;5.07;83.63;97113.63;109086;1273;23782;-72
2023/10/17 00:45:54;;;;;;;10.60;7.20;;;;;;;5.08;83.89;97112.61;109071;1269;22582;-72
2023/10/17 00:48:28;;;;;;;11.00;6.90;;;;;;;5.08;83.65;97116.03;109099;1273;22821;-72
2023/10/17 00:51:08;;;;;;;10.60;7.10;;;;;;;5.09;84.08;97114.20;109030;1269;22520;-72
2023/10/17 00:53:40;;;;;;;10.80;7.20;;;;;;;5.06;84.33;97114.40;109089;1271;22524;-72
2023/10/17 00:56:12;;;;;;;12.40;7.10;;;;;;;5.05;84.38;97113.25;109071;1273;25359;-72
2023/10/17 00:58:43;;;;;;;9.30;6.90;;;;;;;5.01;84.63;97110.89;109079;1273;23759;-72
2023/10/17 01:01:16;;;;;;;10.40;6.50;;;;;;;4.98;84.79;97110.71;109091;1270;22895;-72
2023/10/17 01:03:52;;;;;;;11.20;6.70;;;;;;;4.96;84.97;97113.14;109113;1269;25239;-72
2023/10/17 01:06:36;;;;;;;10.40;6.80;;;;;;;4.95;85.27;97117.69;109037;1272;22772;-72
2023/10/17 01:09:17;;;;;;;10.90;7.70;;;;;;;4.94;85.42;97116.20;109019;1273;37026;-72
2023/10/17 01:11:48;;;;;;;12.10;7.40;;;;;;;4.98;85.73;97115.13;109091;1265;22494;-72
2023/10/17 01:14:20;;;;;;;11.60;7.20;;;;;;;5.04;85.72;97116.82;109075;1272;22511;-72
2023/10/17 01:16:53;;;;;;;8.90;6.70;;;;;;;5.09;85.87;97112.95;109110;1266;22692;-72
2023/10/17 01:19:24;;;;;;;11.30;6.90;;;;;;;5.11;85.76;97110.52;109057;1273;25422;-72
2023/10/17 01:21:56;;;;;;;12.10;7.10;;;;;;;5.13;85.64;97114.90;109103;1273;24216;-72
2023/10/17 01:24:27;;;;;;;8.90;6.70;;;;;;;5.13;85.51;97111.55;109046;1269;24264;-72
2023/10/17 01:27:06;;;;;;;12.50;7.50;;;;;;;5.13;85.43;97114.55;109044;1273;22552;-72
2023/10/17 01:29:38;;;;;;;12.90;7.70;;;;;;;5.14;85.37;97113.98;109062;1273;24905;-72
2023/10/17 01:32:09;;;;;;;13.50;7.10;;;;;;;5.14;85.11;97117.09;109154;1266;22465;-72
2023/10/17 01:34:41;;;;;;;13.40;7.80;;;;;;;5.14;85.09;97119.31;109092;1273;22525;-72
2023/10/17 01:37:12;;;;;;;12.60;7.60;;;;;;;5.17;85.01;97122.40;109087;1265;22693;-72
2023/10/17 01:39:43;;;;;;;14.90;8.20;;;;;;;5.17;85.15;97120.72;109044;1272;25042;-72
2023/10/17 01:42:15;;;;;;;11.30;7.30;;;;;;;5.17;84.99;97120.72;109127;1266;24220;-72
2023/10/17 01:44:47;;;;;;;11.00;7.30;;;;;;;5.13;84.99;97121.64;109086;1272;22576;-72
2023/10/17 01:47:19;;;;;;;11.20;7.50;;;;;;;5.14;85.04;97126.65;109051;1273;24919;-72
2023/10/17 01:49:50;;;;;;;10.20;6.30;;;;;;;5.13;84.91;97125.90;109044;1273;23135;-72
2023/10/17 01:52:22;;;;;;;10.70;7.30;;;;;;;5.11;85.00;97126.70;109074;1273;24231;-72
2023/10/17 01:54:53;;;;;;;11.00;7.10;;;;;;;5.10;84.87;97129.95;109091;1269;23772;-72
2023/10/17 01:57:27;;;;;;;12.40;7.70;;;;;;;5.08;84.90;97131.93;109131;1272;22712;-72
2023/10/17 02:00:00;;;;;;;10.40;7.10;;;;;;;5.06;84.92;97132.11;109071;1272;22984;-73
2023/10/17 02:02:32;;;;;;;14.40;7.80;;;;;;;5.08;85.02;97133.31;109090;1265;22592;-72
2023/10/17 02:05:06;;;;;;;11.10;7.10;;;;;;;5.06;84.91;97132.28;109081;1269;22537;-72
2023/10/17 02:07:37;;;;;;;11.30;7.30;;;;;;;5.01;85.09;97133.33;109091;1273;22494;-73
2023/10/17 02:10:14;;;;;;;10.60;7.20;;;;;;;5.00;85.29;97133.23;109113;1272;22639;-73
2023/10/17 02:12:47;;;;;;;11.40;7.90;;;;;;;5.02;85.31;97133.96;109094;1273;22499;-72
2023/10/17 02:15:22;;;;;;;11.70;7.80;;;;;;;5.05;85.43;97136.13;109141;1273;22558;-72
2023/10/17 02:17:57;;;;;;;12.60;7.90;;;;;;;5.09;85.50;97137.55;109037;1272;22547;-72
2023/10/17 02:20:30;;;;;;;10.90;7.40;;;;;;;5.11;85.62;97138.27;109087;1267;22519;-72
2023/10/17 02:23:14;;;;;;;11.60;7.40;;;;;;;5.12;85.82;97135.98;109099;1266;22587;-72
2023/10/17 02:25:45;;;;;;;11.20;7.20;;;;;;;5.15;85.96;97135.40;109083;1266;22522;-72
2023/10/17 02:28:16;;;;;;;11.30;7.90;;;;;;;5.16;86.22;97135.62;109111;1272;23776;-73
2023/10/17 02:30:48;;;;;;;9.50;7.20;;;;;;;5.15;86.12;97134.52;109085;1271;22931;-72
2023/10/17 02:33:21;;;;;;;12.40;8.00;;;;;;;5.12;85.98;97142.02;109042;1273;22547;-72
2023/10/17 02:36:07;;;;;;;12.30;7.30;;;;;;;5.07;85.84;97137.19;109052;1269;22719;-72
2023/10/17 02:38:38;;;;;;;10.90;7.70;;;;;;;5.06;85.93;97137.45;109045;1272;23376;-72
2023/10/17 02:41:13;;;;;;;9.30;6.60;;;;;;;5.03;86.13;97137.45;109090;1273;22518;-72
2023/10/17 02:43:45;;;;;;;10.20;6.90;;;;;;;5.00;86.31;97136.92;109077;1273;25414;-72
2023/10/17 02:46:18;;;;;;;11.30;7.20;;;;;;;4.94;86.38;97134.65;109042;1273;22627;-72
2023/10/17 02:48:51;;;;;;;10.10;7.30;;;;;;;4.90;86.66;97138.95;109063;1272;22601;-72
2023/10/17 02:51:36;;;;;;;10.30;6.80;;;;;;;4.91;87.03;97136.98;109063;1269;25447;-72
2023/10/17 02:54:12;;;;;;;11.20;6.50;;;;;;;4.89;87.10;97142.02;109101;1272;22603;-72
2023/10/17 02:56:51;;;;;;;10.00;5.90;;;;;;;4.86;87.27;97143.23;109027;1270;24070;-72
2023/10/17 02:59:23;;;;;;;8.00;6.20;;;;;;;4.83;87.55;97139.20;109065;1272;23476;-72
2023/10/17 03:01:55;;;;;;;8.80;5.80;;;;;;;4.79;87.73;97139.71;109128;1269;22524;-72
2023/10/17 03:04:28;;;;;;;10.40;5.90;;;;;;;4.75;87.73;97140.45;109090;1250;22472;-72
2023/10/17 03:07:00;;;;;;;14.20;6.70;;;;;;;4.71;88.04;97142.90;109087;1270;23933;-72
2023/10/17 03:09:37;;;;;;;10.20;6.00;;;;;;;4.69;88.02;97142.13;109018;1272;24557;-72
2023/10/17 03:12:10;;;;;;;10.60;6.20;;;;;;;4.67;88.26;97146.17;109037;1273;22577;-72
2023/10/17 03:15:17;;;;;;;12.90;6.60;;;;;;;4.65;88.38;97147.58;109125;1271;22522;-72
2023/10/17 03:17:33;;;;;;;8.80;6.60;;;;;;;4.62;88.51;97155.54;109048;1273;22476;-72
2023/10/17 03:20:08;;;;;;;8.90;5.90;;;;;;;4.60;88.63;97153.71;109065;1266;25411;-72
2023/10/17 03:22:39;;;;;;;9.10;6.80;;;;;;;4.59;88.71;97154.58;109057;1266;25329;-72
2023/10/17 03:25:20;;;;;;;11.10;7.00;;;;;;;4.57;88.50;97153.96;109054;1270;24198;-72
2023/10/17 03:27:55;;;;;;;9.50;6.60;;;;;;;4.56;88.67;97153.94;109064;1273;25406;-72
2023/10/17 03:30:26;;;;;;;10.90;6.80;;;;;;;4.56;88.71;97156.40;109070;1273;23789;-72
2023/10/17 03:33:07;;;;;;;9.80;6.50;;;;;;;4.56;88.92;97152.25;109072;1273;22652;-73
2023/10/17 03:35:49;;;;;;;10.50;6.80;;;;;;;4.55;88.94;97151.98;109081;1272;22644;-73
2023/10/17 03:38:26;;;;;;;10.30;6.20;;;;;;;4.54;88.90;97154.42;109060;1273;25996;-72
2023/10/17 03:41:04;;;;;;;9.90;6.40;;;;;;;4.55;88.82;97153.08;109059;1273;22555;-72
2023/10/17 03:43:49;;;;;;;11.40;6.40;;;;;;;4.55;88.93;97152.34;109072;1273;23801;-72
2023/10/17 03:46:25;;;;;;;11.00;7.10;;;;;;;4.55;88.86;97154.28;109027;1272;22479;-73
2023/10/17 03:48:58;;;;;;;9.40;6.90;;;;;;;4.56;88.96;97155.35;109065;1273;22533;-72
2023/10/17 03:51:30;;;;;;;10.60;6.70;;;;;;;4.57;89.06;97156.26;109060;1273;22511;-72
2023/10/17 03:54:07;;;;;;;12.00;7.20;;;;;;;4.59;89.02;97152.89;109124;1267;22689;-72
2023/10/17 03:56:45;;;;;;;10.60;7.20;;;;;;;4.60;89.16;97153.23;109078;1250;22568;-72
2023/10/17 03:59:32;;;;;;;9.60;5.90;;;;;;;4.61;88.94;97154.98;109087;1266;22536;-72
2023/10/17 04:02:11;;;;;;;12.30;7.10;;;;;;;4.62;88.72;97150.80;109057;1269;22651;-72
2023/10/17 04:04:50;;;;;;;10.00;6.50;;;;;;;4.63;88.59;97150.79;109096;1272;22472;-72
2023/10/17 04:07:22;;;;;;;11.80;6.90;;;;;;;4.65;88.40;97151.02;109074;1255;22557;-72
2023/10/17 04:09:54;;;;;;;9.60;6.70;;;;;;;4.67;88.51;97152.52;109113;1273;22528;-72
2023/10/17 04:12:32;;;;;;;9.80;6.20;;;;;;;4.69;88.75;97151.59;109068;1267;24212;-72
2023/10/17 04:15:08;;;;;;;10.10;6.00;;;;;;;4.74;88.92;97151.41;109074;1273;23293;-72
2023/10/17 04:17:39;;;;;;;8.50;5.70;;;;;;;4.77;89.11;97150.16;109036;1273;22603;-72
2023/10/17 04:20:12;;;;;;;10.70;6.80;;;;;;;4.78;89.36;97148.98;109053;1266;25419;-72
2023/10/17 04:22:44;;;;;;;9.50;6.40;;;;;;;4.81;89.45;97150.67;109075;1273;23840;-72
2023/10/17 04:25:34;;;;;;;9.50;6.90;;;;;;;4.84;89.67;97150.38;109116;1273;22481;-73
2023/10/17 04:28:06;;;;;;;10.20;7.00;;;;;;;4.87;89.57;97149.55;109037;1273;25061;-73
2023/10/17 04:30:46;;;;;;;9.20;7.20;;;;;;;4.85;89.32;97146.15;109084;1273;22867;-73
2023/10/17 04:33:19;;;;;;;13.00;8.60;;;;;;;4.83;89.14;97147.95;109095;1273;22594;-72
2023/10/17 04:35:59;;;;;;;11.10;7.90;;;;;;;4.80;89.00;97145.77;109057;1273;26766;-72
2023/10/17 04:38:38;;;;;;;10.30;7.00;;;;;;;4.78;88.94;97145.30;109110;1273;22649;-72
2023/10/17 04:41:30;;;;;;;11.30;6.80;;;;;;;4.80;89.22;97141.16;109099;1273;23849;-72
2023/10/17 04:44:15;;;;;;;11.20;7.70;;;;;;;4.80;89.20;97145.20;109058;1273;22525;-73
2023/10/17 04:47:07;;;;;;;11.10;8.10;;;;;;;4.81;89.17;97142.77;109077;1273;24509;-72
2023/10/17 04:49:39;;;;;;;9.70;7.30;;;;;;;4.83;88.99;97146.20;109064;1269;22558;-72
2023/10/17 04:52:18;;;;;;;12.10;7.40;;;;;;;4.80;89.02;97151.30;109077;1272;25017;-72
2023/10/17 04:54:52;;;;;;;10.60;6.90;;;;;;;4.80;88.87;97148.77;109029;1273;22591;-72
2023/10/17 04:57:48;;;;;;;11.40;7.90;;;;;;;4.80;89.07;97147.25;109085;1271;22987;-72
2023/10/17 05:00:38;;;;;;;11.10;7.90;;;;;;;4.81;89.12;97150.27;109013;1273;22520;-72
2023/10/17 05:03:20;;;;;;;13.90;8.40;;;;;;;4.74;88.65;97152.27;109056;1273;24029;-76
2023/10/17 05:06:19;;;;;;;12.70;8.00;;;;;;;4.67;88.62;97154.98;109077;1273;22462;-76
2023/10/17 05:09:12;;;;;;;9.80;5.60;;;;;;;4.60;88.55;97158.11;109010;1267;22614;-76
2023/10/17 06:17:23;;;;;;;12.20;8.10;;;;;;;6.60;88.39;97230.95;109088;1273;22494;-77
2023/10/17 06:19:58;;;;;;;12.30;8.00;;;;;;;6.62;88.40;97233.27;109067;1273;22679;-76
2023/10/17 06:28:26;;;;;;;11.90;8.10;;;;;;;7.17;88.20;97228.63;109031;1267;28757;-76
2023/10/17 06:33:44;;;;;;;11.00;7.30;;;;;;;9.14;86.97;97231.24;109013;1270;25469;-76
2023/10/17 06:36:24;;;;;;;10.30;7.10;;;;;;;10.33;85.26;97228.75;109056;1273;24234;-76
2023/10/17 06:38:56;;;;;;;10.50;6.10;;;;;;;11.05;83.03;97235.82;109038;1273;24234;-76
2023/10/17 06:41:38;;;;;;;11.10;6.30;;;;;;;11.02;80.88;97238.70;109051;1272;22532;-76
2023/10/17 06:44:10;;;;;;;10.40;6.00;;;;;;;10.59;80.13;97236.68;109047;1267;23782;-76
2023/10/17 06:46:48;;;;;;;9.60;6.70;;;;;;;10.42;80.89;97242.42;109087;1271;22645;-76
2023/10/17 06:49:46;;;;;;;8.40;5.50;;;;;;;11.30;81.71;97241.11;109086;1269;22541;-76
2023/10/17 06:52:23;;;;;;;11.20;6.50;;;;;;;11.56;79.68;97246.79;109114;1269;22515;-77
2023/10/17 06:55:00;;;;;;;10.00;6.30;;;;;;;11.24;78.87;97252.23;109069;1273;23614;-77
2023/10/17 06:57:36;;;;;;;10.70;7.10;;;;;;;10.94;78.23;97254.48;109065;1271;22471;-77
2023/10/17 07:00:24;;;;;;;13.10;7.80;;;;;;;10.37;77.68;97251.84;109054;1270;23259;-76
2023/10/17 07:02:57;;;;;;;13.50;8.30;;;;;;;9.89;77.53;97250.62;109072;1273;23769;-76
2023/10/17 07:05:36;;;;;;;11.10;7.40;;;;;;;9.51;78.08;97250.61;109054;1267;22522;-76
2023/10/17 07:08:14;;;;;;;15.40;8.70;;;;;;;9.26;78.18;97252.46;109097;1268;22578;-76
2023/10/17 07:10:58;;;;;;;11.40;7.50;;;;;;;9.17;78.82;97255.89;109048;1267;25533;-77
2023/10/17 07:14:10;;;;;;;11.00;7.70;;;;;;;9.11;78.46;97255.41;109072;1267;24213;-76
2023/10/17 07:16:48;;;;;;;9.90;7.50;;;;;;;8.95;78.28;97253.11;109056;1273;22515;-77
2023/10/17 07:22:14;;;;;;;10.90;7.10;;;;;;;8.93;78.63;97258.23;109089;1273;22597;-77
2023/10/17 07:24:50;;;;;;;11.00;7.10;;;;;;;9.13;78.74;97253.63;109067;1264;22548;-76
2023/10/17 07:27:33;;;;;;;11.80;7.50;;;;;;;9.34;78.26;97253.41;109122;1270;23790;-76
2023/10/17 07:30:13;;;;;;;10.10;6.70;;;;;;;9.48;77.50;97243.83;109076;1270;25284;-77
2023/10/17 07:32:48;;;;;;;9.60;6.80;;;;;;;9.87;77.41;97239.53;109092;1267;22630;-76
2023/10/17 07:35:30;;;;;;;12.30;7.00;;;;;;;10.57;76.33;97238.73;109085;1273;22518;-76
2023/10/17 07:38:07;;;;;;;10.50;5.70;;;;;;;11.54;75.59;97238.11;109092;1273;22473;-77
2023/10/17 07:40:54;;;;;;;9.00;5.50;;;;;;;12.83;74.52;97230.77;109068;1268;22931;-76
2023/10/17 07:43:26;;;;;;;10.70;7.10;;;;;;;14.05;73.58;97229.28;109036;1269;25265;-76
2023/10/17 07:46:07;;;;;;;9.50;7.00;;;;;;;14.50;71.24;97228.52;109050;1273;22558;-76
2023/10/17 07:48:38;;;;;;;11.90;6.60;;;;;;;14.93;70.73;97226.04;109090;1273;24151;-76
2023/10/17 07:51:14;;;;;;;11.60;6.40;;;;;;;15.82;69.76;97229.18;109056;1269;22534;-77
2023/10/17 07:53:47;;;;;;;8.60;5.00;;;;;;;16.17;67.92;97230.08;109029;1273;22651;-76
2023/10/17 07:56:21;;;;;;;8.20;5.10;;;;;;;16.18;65.81;97229.61;109092;1273;25002;-77
2023/10/17 07:59:04;;;;;;;8.20;4.80;;;;;;;15.98;65.76;97228.08;109050;1273;25403;-76
2023/10/17 08:01:42;;;;;;;8.30;5.30;;;;;;;15.78;63.58;97228.14;109059;1270;24244;-77
2023/10/17 08:04:23;;;;;;;8.00;4.70;;;;;;;15.29;62.13;97230.48;109104;1267;22547;-77
2023/10/17 08:06:56;;;;;;;8.10;5.00;;;;;;;14.87;60.77;97226.88;109055;1273;22653;-77
2023/10/17 08:09:40;;;;;;;6.30;4.70;;;;;;;14.65;60.27;97229.38;109111;1273;23295;-77
2023/10/17 08:12:15;;;;;;;8.90;5.40;;;;;;;14.39;59.69;97226.75;109087;1266;22525;-77
2023/10/17 08:14:48;;;;;;;8.00;4.30;;;;;;;14.53;60.64;97229.81;108995;1271;23270;-77
2023/10/17 08:17:21;;;;;;;6.40;3.80;;;;;;;14.78;58.81;97224.23;109017;1275;22550;-77
2023/10/17 08:20:09;;;;;;;9.10;5.10;;;;;;;14.65;58.50;97224.92;108964;1275;22988;-77
2023/10/17 08:23:06;;;;;;;10.70;5.00;;;;;;;14.52;58.74;97223.12;108973;1275;22537;-77
2023/10/17 08:25:52;;;;;;;9.10;5.40;;;;;;;14.69;59.45;97223.09;108873;1275;177523;-76
2023/10/17 08:28:37;;;;;;;9.50;5.50;;;;;;;14.60;59.08;97223.54;108971;1274;24743;-77
2023/10/17 08:31:22;;;;;;;7.90;4.50;;;;;;;14.60;58.71;97221.77;108947;1274;25236;-77
2023/10/17 08:34:09;;;;;;;7.50;4.40;;;;;;;14.35;56.13;97220.50;108965;1274;22527;-77
2023/10/17 08:36:49;;;;;;;6.70;4.00;;;;;;;13.52;55.99;97218.62;108961;1275;24052;-76
2023/10/17 08:39:51;;;;;;;8.00;4.50;;;;;;;12.78;55.34;97223.89;108925;1266;25297;-77
2023/10/17 08:42:31;;;;;;;9.30;5.00;;;;;;;12.11;56.77;97227.19;108995;1270;25888;-77
2023/10/17 08:45:15;;;;;;;;;;;;;;;11.98;57.68;97229.65;108962;1275;25272;-77
2023/10/17 08:47:46;;;;;;;8.30;4.20;;;;;;;11.57;57.51;97231.73;109014;1269;22528;-77
2023/10/17 08:50:18;;;;;;;8.50;4.70;;;;;;;11.07;57.67;97235.67;108989;1274;23244;-77
2023/10/17 08:52:50;;;;;;;7.50;4.10;;;;;;;10.64;58.09;97232.24;109019;1275;24183;-77
2023/10/17 08:55:24;;;;;;;7.10;4.60;;;;;;;10.45;58.92;97231.95;108996;1275;22518;-77
2023/10/17 08:57:55;;;;;;;7.00;4.30;;;;;;;10.46;59.74;97231.30;108976;1275;22540;-77
2023/10/17 09:03:20;;;;;;;7.30;4.80;;;;;;;9.76;59.46;97227.94;108989;1251;22533;-77
2023/10/17 09:06:06;;;;;;;7.50;4.50;;;;;;;9.42;59.94;97232.45;108969;1275;22602;-77
2023/10/17 09:08:52;;;;;;;7.30;4.50;;;;;;;9.30;60.77;97236.61;108953;1270;24443;-77
2023/10/17 09:11:34;;;;;;;6.60;4.30;;;;;;;9.18;61.48;97236.27;109030;1275;22524;-77
2023/10/17 09:14:16;;;;;;;6.20;4.20;;;;;;;9.20;61.97;97237.29;109085;1273;22515;-77
2023/10/17 09:17:10;;;;;;;9.50;6.40;;;;;;;9.07;61.86;97234.34;109095;1273;22607;-77
2023/10/17 09:19:50;;;;;;;10.90;6.70;;;;;;;8.91;62.20;97240.92;109004;1263;23415;-77
2023/10/17 09:22:38;;;;;;;11.60;6.30;;;;;;;8.90;62.65;97242.55;109070;1273;22589;-77
2023/10/17 09:25:22;;;;;;;11.20;5.80;;;;;;;8.91;62.77;97244.45;109100;1270;22981;-78
2023/10/17 09:27:57;;;;;;;7.00;4.40;;;;;;;9.01;63.24;97244.64;109074;1273;22535;-77
2023/10/17 09:30:30;;;;;;;16.90;9.60;;;;;;;9.14;63.34;97244.81;109066;1267;22480;-78
2023/10/17 09:33:04;;;;;;;16.50;9.00;;;;;;;9.00;62.77;97247.06;109049;1267;22624;-78
2023/10/17 09:35:38;;;;;;;16.50;10.30;;;;;;;8.63;63.29;97239.34;109079;1273;22475;-78
2023/10/17 09:38:11;;;;;;;12.50;8.10;;;;;;;8.79;64.35;97236.98;109061;1269;24328;-77
2023/10/17 09:40:43;;;;;;;9.10;5.70;;;;;;;8.94;63.91;97238.29;109085;1270;22606;-78
2023/10/17 09:43:15;;;;;;;10.00;5.20;;;;;;;9.03;64.16;97235.71;109086;1269;22525;-78
2023/10/17 09:45:48;;;;;;;10.30;5.40;;;;;;;9.13;63.81;97233.24;109095;1273;22643;-78
2023/10/17 09:48:27;;;;;;;5.60;3.80;;;;;;;9.04;63.40;97232.13;109050;1272;22579;-77
2023/10/17 09:51:01;;;;;;;5.10;3.90;;;;;;;8.91;63.17;97229.55;109088;1273;25291;-78
2023/10/17 09:53:36;;;;;;;6.20;3.90;;;;;;;8.90;62.69;97230.45;109087;1273;22541;-78
2023/10/17 09:56:16;;;;;;;5.50;3.40;;;;;;;8.84;62.73;97227.05;109088;1267;22526;-78
2023/10/17 09:58:52;;;;;;;6.80;3.50;;;;;;;8.87;62.42;97227.24;109133;1273;24434;-78
2023/10/17 10:01:26;;;;;;;4.60;3.20;;;;;;;8.85;62.28;97225.46;109109;1273;23715;-78
2023/10/17 10:04:02;;;;;;;6.40;3.60;;;;;;;8.89;62.10;97221.91;109091;1273;22796;-78
2023/10/17 10:06:36;;;;;;;5.60;3.70;;;;;;;9.05;62.37;97220.45;109115;1272;22511;-78
2023/10/17 10:09:30;;;;;;;5.40;3.40;;;;;;;9.20;62.31;97216.91;109037;1273;22526;-78
2023/10/17 10:12:05;;;;;;;6.60;3.40;;;;;;;9.28;61.96;97216.44;109127;1273;22535;-78
2023/10/17 10:14:43;;;;;;;4.80;2.90;;;;;;;9.25;61.67;97214.62;109072;1269;22550;-78
2023/10/17 10:17:16;;;;;;;6.00;3.20;;;;;;;9.23;61.30;97212.85;109066;1273;22654;-78
2023/10/17 10:20:05;;;;;;;5.80;2.90;;;;;;;9.34;61.60;97207.55;109114;1265;22554;-77
2023/10/17 10:22:52;;;;;;;4.90;3.10;;;;;;;9.28;61.06;97205.31;109097;1268;22532;-77
2023/10/17 10:25:26;;;;;;;5.10;3.40;;;;;;;9.23;60.93;97202.39;109083;1273;24298;-78
2023/10/17 10:28:29;;;;;;;5.80;3.60;;;;;;;9.33;61.41;97198.37;109062;1267;22540;-77
2023/10/17 10:31:40;;;;;;;6.40;4.20;;;;;;;9.29;60.74;97195.07;109099;1267;22517;-77
2023/10/17 10:34:12;;;;;;;6.20;3.70;;;;;;;9.28;60.79;97194.20;109083;1266;23798;-77
2023/10/17 10:36:43;;;;;;;8.30;5.60;;;;;;;9.39;61.60;97191.32;109110;1273;24008;-77
2023/10/17 10:39:18;;;;;;;11.00;6.10;;;;;;;9.54;62.33;97183.88;109105;1273;22605;-77
2023/10/17 10:42:07;;;;;;;8.70;5.80;;;;;;;9.62;62.59;97181.77;109096;1266;22516;-77
2023/10/17 10:44:43;;;;;;;8.60;5.60;;;;;;;9.58;62.44;97175.28;109103;1250;22568;-77
2023/10/17 10:47:14;;;;;;;9.50;5.50;;;;;;;9.72;63.22;97172.90;109065;1266;22539;-77
2023/10/17 10:49:49;;;;;;;7.40;5.60;;;;;;;10.00;63.18;97172.90;109064;1273;22535;-77
2023/10/17 10:52:28;;;;;;;8.80;5.60;;;;;;;9.92;61.57;97164.55;109074;1250;22514;-77
2023/10/17 10:55:01;;;;;;;8.20;5.70;;;;;;;9.71;61.70;97163.90;109100;1270;22553;-77
2023/10/17 10:57:34;;;;;;;7.70;5.30;;;;;;;9.72;62.14;97162.31;109056;1272;22647;-77
2023/10/17 11:00:12;;;;;;;8.20;5.10;;;;;;;9.76;62.27;97161.75;109047;1266;22550;-77
2023/10/17 11:02:43;;;;;;;8.70;4.90;;;;;;;9.83;62.57;97157.42;109104;1272;24243;-77
2023/10/17 11:05:19;;;;;;;7.70;4.80;;;;;;;9.76;62.17;97156.92;109091;1267;24909;-77
2023/10/17 11:08:01;;;;;;;8.40;5.10;;;;;;;9.71;61.97;97154.41;109111;1272;22535;-77
2023/10/17 11:10:33;;;;;;;9.60;5.30;;;;;;;9.76;62.39;97156.35;109090;1273;22521;-77
2023/10/17 11:13:06;;;;;;;9.00;4.70;;;;;;;9.76;61.87;97149.67;109127;1266;24909;-77
2023/10/17 11:15:43;;;;;;;8.20;4.70;;;;;;;9.75;61.76;97147.19;109115;1272;22532;-77
2023/10/17 11:18:20;;;;;;;9.60;5.20;;;;;;;9.74;62.24;97144.12;109066;1272;22611;-77
2023/10/17 11:20:57;;;;;;;7.50;4.50;;;;;;;9.85;62.15;97143.61;109055;1265;22530;-77
2023/10/17 11:23:32;;;;;;;7.40;5.00;;;;;;;9.76;61.67;97144.27;109146;1269;22627;-77
2023/10/17 11:26:09;;;;;;;6.50;4.30;;;;;;;9.80;61.75;97141.64;109117;1273;22541;-77
2023/10/17 11:28:42;;;;;;;7.60;4.90;;;;;;;9.83;61.52;97137.45;109068;1273;23776;-77
2023/10/17 11:31:21;;;;;;;6.20;4.20;;;;;;;9.90;61.77;97137.70;109067;1273;22459;-77
2023/10/17 11:33:59;;;;;;;7.50;4.70;;;;;;;9.86;61.61;97134.08;109067;1272;23275;-77
2023/10/17 11:36:35;;;;;;;5.90;4.30;;;;;;;9.97;62.21;97131.46;109087;1273;22554;-77
2023/10/17 11:39:08;;;;;;;7.80;5.30;;;;;;;10.10;62.37;97132.61;109063;1273;22524;-77
2023/10/17 11:41:48;;;;;;;6.50;4.80;;;;;;;10.18;62.45;97134.11;109047;1273;22598;-77
2023/10/17 11:44:23;;;;;;;6.60;4.70;;;;;;;10.24;62.18;97134.67;109125;1266;22641;-77
2023/10/17 11:47:02;;;;;;;8.70;4.80;;;;;;;10.29;61.93;97137.88;109083;1273;25285;-77
2023/10/17 11:49:39;;;;;;;6.50;5.00;;;;;;;10.27;61.65;97136.97;109110;1269;25450;-77
2023/10/17 11:52:12;;;;;;;7.20;4.70;;;;;;;10.21;61.37;97135.45;109096;1273;22524;-77
2023/10/17 11:55:03;;;;;;;9.50;5.20;;;;;;;10.25;61.41;97132.98;109064;1265;22525;-77
2023/10/17 11:57:35;;;;;;;6.50;4.80;;;;;;;10.32;61.87;97133.22;109150;1273;22560;-77
2023/10/17 12:00:19;;;;;;;9.50;5.80;;;;;;;10.36;61.91;97133.96;108993;1273;22523;-77
2023/10/17 12:02:51;;;;;;;8.50;5.60;;;;;;;10.28;61.39;97135.39;109101;1272;22537;-77
2023/10/17 12:05:27;;;;;;;8.10;5.30;;;;;;;10.22;61.69;97130.65;109089;1266;24237;-76
2023/10/17 12:07:59;;;;;;;8.20;5.40;;;;;;;10.24;61.69;97130.70;109095;1272;24178;-76
2023/10/17 12:10:36;;;;;;;9.20;5.60;;;;;;;10.26;61.66;97129.16;109122;1266;24164;-77
2023/10/17 12:13:08;;;;;;;6.00;4.60;;;;;;;10.30;61.51;97132.85;109104;1272;24244;-77
2023/10/17 12:15:40;;;;;;;8.00;5.20;;;;;;;10.31;61.37;97129.83;109041;1273;22521;-77
2023/10/17 12:18:11;;;;;;;8.30;4.70;;;;;;;10.35;61.63;97126.27;109063;1267;22539;-77
2023/10/17 12:20:49;;;;;;;8.50;4.90;;;;;;;10.41;61.73;97126.97;109113;1266;23319;-77
2023/10/17 12:23:20;;;;;;;8.40;5.10;;;;;;;10.44;61.34;97121.20;109093;1273;22539;-77
2023/10/17 12:25:52;;;;;;;6.60;4.70;;;;;;;10.35;61.21;97121.98;109076;1270;22521;-77
2023/10/17 12:28:23;;;;;;;6.90;4.70;;;;;;;10.29;61.10;97115.88;109051;1269;25203;-76
2023/10/17 12:30:55;;;;;;;11.90;4.90;;;;;;;10.17;61.01;97114.04;109051;1268;22657;-77
2023/10/17 12:33:27;;;;;;;9.70;5.20;;;;;;;10.16;61.39;97110.38;109084;1269;23307;-77
2023/10/17 12:35:59;;;;;;;6.80;5.00;;;;;;;10.13;61.47;97106.75;109056;1273;22840;-77
2023/10/17 12:38:38;;;;;;;8.80;5.80;;;;;;;10.09;61.05;97104.58;109071;1273;25592;-76
2023/10/17 12:41:11;;;;;;;7.50;5.20;;;;;;;10.02;61.14;97099.97;109071;1273;25352;-77
2023/10/17 12:43:43;;;;;;;8.00;5.10;;;;;;;10.05;61.59;97100.13;109109;1266;22525;-77
2023/10/17 12:46:15;;;;;;;10.60;6.40;;;;;;;10.11;61.78;97100.39;109095;1273;23760;-77
2023/10/17 12:48:49;;;;;;;8.10;5.70;;;;;;;10.09;61.58;97103.46;109116;1268;25368;-77
2023/10/17 12:51:23;;;;;;;8.50;5.20;;;;;;;10.15;62.18;97097.59;109069;1269;22527;-77
2023/10/17 12:53:55;;;;;;;10.20;6.30;;;;;;;10.24;62.32;97100.28;109095;1265;22563;-77
2023/10/17 12:56:26;;;;;;;11.50;7.60;;;;;;;10.29;62.12;97093.09;109055;1273;22521;-76
2023/10/17 12:58:59;;;;;;;9.70;6.20;;;;;;;10.19;61.99;97091.41;109027;1272;22569;-77
2023/10/17 13:01:30;;;;;;;9.20;5.60;;;;;;;10.21;61.96;97083.73;109118;1273;22536;-77
2023/10/17 13:04:07;;;;;;;9.40;5.70;;;;;;;10.11;61.09;97085.77;109076;1273;23862;-76
2023/10/17 13:06:41;;;;;;;11.00;6.10;;;;;;;9.87;61.19;97080.75;109093;1266;22526;-77
2023/10/17 13:09:13;;;;;;;8.10;5.60;;;;;;;9.88;61.84;97080.28;109091;1269;23286;-76
2023/10/17 13:11:47;;;;;;;7.60;5.00;;;;;;;10.01;62.18;97075.27;109086;1266;23842;-77
2023/10/17 13:14:19;;;;;;;8.10;5.30;;;;;;;10.14;61.56;97076.52;109095;1266;24236;-77
2023/10/17 13:16:51;;;;;;;7.50;5.00;;;;;;;10.13;60.78;97074.77;109087;1266;22602;-77
2023/10/17 13:19:25;;;;;;;8.90;5.40;;;;;;;10.25;61.21;97067.84;109101;1272;24375;-77
2023/10/17 13:21:59;;;;;;;8.00;5.60;;;;;;;10.54;61.49;97066.27;109049;1271;22602;-77
2023/10/17 13:24:32;;;;;;;9.50;5.40;;;;;;;10.70;60.79;97067.73;109090;1273;22787;-77
2023/10/17 13:27:04;;;;;;;7.70;5.20;;;;;;;10.64;60.43;97068.00;109039;1265;25339;-77
2023/10/17 13:29:36;;;;;;;6.20;4.40;;;;;;;10.53;60.35;97063.88;109093;1269;22539;-77
2023/10/17 13:32:08;;;;;;;6.00;3.80;;;;;;;10.31;59.42;97065.89;109047;1272;22928;-77